createdAt,value
2023-02-27T00:01:41.031Z,47.14
2023-02-27T00:03:42.600Z,47.38
2023-02-27T00:05:44.340Z,47.49
2023-02-27T00:07:46.091Z,47.36
2023-02-27T00:09:50.015Z,47.84
2023-02-27T00:11:53.607Z,47.26
2023-02-27T00:13:55.055Z,47.69
2023-02-27T00:15:56.831Z,47.15
2023-02-27T00:18:00.073Z,47.30
2023-02-27T00:20:02.333Z,47.16
2023-02-27T00:22:04.102Z,47.47
2023-02-27T00:24:06.094Z,47.43
2023-02-27T00:26:09.565Z,47.32
2023-02-27T00:28:11.801Z,47.52
2023-02-27T00:30:15.939Z,47.25
2023-02-27T00:32:17.549Z,47.28
2023-02-27T00:34:21.906Z,47.53
2023-02-27T00:36:23.747Z,47.35
2023-02-27T00:38:26.395Z,47.39
2023-02-27T00:40:28.153Z,47.45
2023-02-27T00:42:30.896Z,47.20
2023-02-27T00:44:32.589Z,47.29
2023-02-27T00:46:37.086Z,47.28
2023-02-27T00:48:42.821Z,47.20
2023-02-27T00:50:44.714Z,47.10
2023-02-27T00:52:46.445Z,47.48
2023-02-27T00:54:48.342Z,47.40
2023-02-27T00:56:50.074Z,47.49
2023-02-27T00:58:51.717Z,47.26
2023-02-27T01:00:59.840Z,46.77
2023-02-27T01:03:09.614Z,47.49
2023-02-27T01:05:11.560Z,47.21
2023-02-27T01:07:15.390Z,47.62
2023-02-27T01:09:16.987Z,46.91
2023-02-27T01:11:19.226Z,47.37
2023-02-27T01:13:24.039Z,47.72
2023-02-27T01:15:25.690Z,47.59
2023-02-27T01:17:27.268Z,47.09
2023-02-27T01:19:28.957Z,47.11
2023-02-27T01:21:32.841Z,47.34
2023-02-27T01:23:34.511Z,47.18
2023-02-27T01:25:41.368Z,47.17
2023-02-27T01:27:43.159Z,47.46
2023-02-27T01:29:44.800Z,47.12
2023-02-27T01:31:48.688Z,47.55
2023-02-27T01:33:50.401Z,47.28
2023-02-27T01:35:52.347Z,47.37
2023-02-27T01:37:54.081Z,47.28
2023-02-27T01:39:55.818Z,47.15
2023-02-27T01:42:01.018Z,47.67
2023-02-27T01:44:12.630Z,47.22
2023-02-27T01:46:14.408Z,47.42
2023-02-27T01:48:24.721Z,47.24
2023-02-27T01:50:26.814Z,47.08
2023-02-27T01:52:30.967Z,47.27
2023-02-27T01:54:40.429Z,47.69
2023-02-27T01:56:45.475Z,47.42
2023-02-27T01:58:50.251Z,47.36
2023-02-27T02:00:53.006Z,47.33
2023-02-27T02:03:04.874Z,47.96
2023-02-27T02:05:07.539Z,47.23
2023-02-27T02:07:14.902Z,47.42
2023-02-27T02:09:19.558Z,47.43
2023-02-27T02:11:22.627Z,47.02
2023-02-27T02:13:24.987Z,47.25
2023-02-27T02:15:36.549Z,47.43
2023-02-27T02:18:12.350Z,47.12
2023-02-27T02:20:48.632Z,47.32
2023-02-27T02:23:15.216Z,47.41
2023-02-27T02:25:42.870Z,47.00
2023-02-27T02:28:02.960Z,47.59
2023-02-27T02:30:23.688Z,47.07
2023-02-27T02:32:44.001Z,47.47
2023-02-27T02:35:18.558Z,47.22
2023-02-27T02:37:51.467Z,47.08
2023-02-27T02:40:02.869Z,47.43
2023-02-27T02:42:21.931Z,47.11
2023-02-27T02:44:34.060Z,47.27
2023-02-27T02:47:02.344Z,47.33
2023-02-27T02:49:41.620Z,47.72
2023-02-27T02:52:03.322Z,47.65
2023-02-27T02:54:13.077Z,47.41
2023-02-27T02:56:42.946Z,47.36
2023-02-27T02:59:01.628Z,47.58
2023-02-27T03:01:17.359Z,47.30
2023-02-27T03:03:28.187Z,47.30
2023-02-27T03:05:35.924Z,47.59
2023-02-27T03:07:51.125Z,47.33
2023-02-27T03:10:00.892Z,47.34
2023-02-27T03:12:10.256Z,47.61
2023-02-27T03:14:41.177Z,47.63
2023-02-27T03:16:46.030Z,47.16
2023-02-27T03:19:03.302Z,47.50
2023-02-27T03:21:11.805Z,47.04
2023-02-27T03:25:40.873Z,47.50
2023-02-27T03:28:00.833Z,47.46
2023-02-27T03:30:10.365Z,47.55
2023-02-27T03:32:44.074Z,47.26
2023-02-27T03:34:46.038Z,47.11
2023-02-27T03:36:52.760Z,47.36
2023-02-27T03:39:09.459Z,47.61
2023-02-27T03:41:18.668Z,47.48
2023-02-27T03:43:51.717Z,47.27
2023-02-27T03:45:56.513Z,47.46
2023-02-27T03:47:58.617Z,47.43
2023-02-27T03:50:02.948Z,47.62
2023-02-27T03:52:04.763Z,47.39
2023-02-27T03:54:14.789Z,47.49
2023-02-27T03:56:20.482Z,47.49
2023-02-27T03:58:22.262Z,47.88
2023-02-27T04:00:26.141Z,47.60
2023-02-27T04:02:28.670Z,47.65
2023-02-27T04:04:32.563Z,47.45
2023-02-27T04:07:15.922Z,47.62
2023-02-27T04:09:38.035Z,47.50
2023-02-27T04:12:03.196Z,47.32
2023-02-27T04:14:19.526Z,47.66
2023-02-27T04:16:47.132Z,47.53
2023-02-27T04:19:27.408Z,47.39
2023-02-27T04:21:39.439Z,47.63
2023-02-27T04:23:49.291Z,47.93
2023-02-27T04:26:16.023Z,47.64
2023-02-27T04:28:22.334Z,47.76
2023-02-27T04:30:46.256Z,48.04
2023-02-27T04:33:03.371Z,47.89
2023-02-27T04:35:11.171Z,47.80
2023-02-27T04:37:24.564Z,47.72
2023-02-27T04:39:30.968Z,47.83
2023-02-27T04:41:45.059Z,47.50
2023-02-27T04:43:49.534Z,47.56
2023-02-27T04:45:53.345Z,47.70
2023-02-27T04:48:03.641Z,47.68
2023-02-27T04:50:11.001Z,47.65
2023-02-27T04:52:19.094Z,47.73
2023-02-27T04:54:36.200Z,47.79
2023-02-27T04:56:48.685Z,47.69
2023-02-27T04:58:54.832Z,47.60
2023-02-27T05:01:04.781Z,47.52
2023-02-27T05:03:17.918Z,47.72
2023-02-27T05:05:25.196Z,47.95
2023-02-27T05:07:31.552Z,47.98
2023-02-27T05:09:58.319Z,47.91
2023-02-27T05:12:10.909Z,47.70
2023-02-27T05:14:16.111Z,48.23
2023-02-27T05:16:29.559Z,47.56
2023-02-27T05:18:31.356Z,48.03
2023-02-27T05:20:56.116Z,47.64
2023-02-27T05:23:46.150Z,47.96
2023-02-27T05:26:24.439Z,47.60
2023-02-27T05:28:53.717Z,47.48
2023-02-27T05:31:14.456Z,47.71
2023-02-27T05:33:28.989Z,47.61
2023-02-27T05:35:36.612Z,47.62
2023-02-27T05:38:09.659Z,47.78
2023-02-27T05:40:15.323Z,47.54
2023-02-27T05:42:34.415Z,47.80
2023-02-27T05:44:42.765Z,47.85
2023-02-27T05:46:56.166Z,47.62
2023-02-27T05:49:03.937Z,47.77
2023-02-27T05:51:09.199Z,47.53
2023-02-27T05:53:16.690Z,47.77
2023-02-27T05:55:30.021Z,47.57
2023-02-27T05:57:47.514Z,47.48
2023-02-27T06:00:07.644Z,47.90
2023-02-27T06:02:13.571Z,48.04
2023-02-27T06:04:15.406Z,48.08
2023-02-27T06:06:19.035Z,48.04
2023-02-27T06:08:22.399Z,47.91
2023-02-27T06:10:23.996Z,47.95
2023-02-27T06:12:28.722Z,47.64
2023-02-27T06:14:30.600Z,47.89
2023-02-27T06:16:32.749Z,48.00
2023-02-27T06:18:34.571Z,47.96
2023-02-27T06:20:41.798Z,48.18
2023-02-27T06:22:43.676Z,47.91
2023-02-27T06:24:45.889Z,48.06
2023-02-27T06:26:50.030Z,48.14
2023-02-27T06:28:51.780Z,48.08
2023-02-27T06:30:55.389Z,48.03
2023-02-27T06:32:57.523Z,48.19
2023-02-27T06:34:59.244Z,48.19
2023-02-27T06:37:03.222Z,47.64
2023-02-27T06:39:06.838Z,47.63
2023-02-27T06:41:08.357Z,47.84
2023-02-27T06:43:10.060Z,47.99
2023-02-27T06:45:14.026Z,47.98
2023-02-27T06:47:16.112Z,48.05
2023-02-27T06:49:18.981Z,47.64
2023-02-27T06:51:20.554Z,47.70
2023-02-27T06:53:23.561Z,47.89
2023-02-27T06:55:25.764Z,48.23
2023-02-27T06:57:27.348Z,48.01
2023-02-27T06:59:33.035Z,47.86
2023-02-27T07:01:35.805Z,48.42
2023-02-27T07:03:37.526Z,48.16
2023-02-27T07:05:41.236Z,48.16
2023-02-27T07:07:43.815Z,48.43
2023-02-27T07:09:46.133Z,48.32
2023-02-27T07:11:47.956Z,48.14
2023-02-27T07:13:50.033Z,48.59
2023-02-27T07:15:52.407Z,48.73
2023-02-27T07:17:54.465Z,48.40
2023-02-27T07:19:56.159Z,48.48
2023-02-27T07:21:57.665Z,48.60
2023-02-27T07:23:59.360Z,48.91
2023-02-27T07:26:01.064Z,48.88
2023-02-27T07:28:02.740Z,48.70
2023-02-27T07:30:05.017Z,48.82
2023-02-27T07:32:07.515Z,49.08
2023-02-27T07:34:15.977Z,49.25
2023-02-27T07:36:17.919Z,49.82
2023-02-27T07:38:19.630Z,49.84
2023-02-27T07:40:21.492Z,49.43
2023-02-27T07:42:23.410Z,49.66
2023-02-27T07:44:24.927Z,49.96
2023-02-27T07:46:27.937Z,49.53
2023-02-27T07:48:31.227Z,49.69
2023-02-27T07:50:32.845Z,50.54
2023-02-27T07:52:34.277Z,50.01
2023-02-27T07:54:37.588Z,49.75
2023-02-27T07:56:39.494Z,49.05
2023-02-27T07:58:41.216Z,49.36
2023-02-27T08:00:43.329Z,49.37
2023-02-27T08:02:45.094Z,49.21
2023-02-27T08:04:47.237Z,48.31
2023-02-27T08:06:48.870Z,48.41
2023-02-27T08:08:51.788Z,47.92
2023-02-27T08:10:53.460Z,47.68
2023-02-27T08:12:55.320Z,47.37
2023-02-27T08:14:57.037Z,47.23
2023-02-27T08:17:01.637Z,46.91
2023-02-27T08:19:03.538Z,46.88
2023-02-27T08:21:07.867Z,47.02
2023-02-27T08:23:09.699Z,46.87
2023-02-27T08:25:11.541Z,46.42
2023-02-27T08:27:19.147Z,46.51
2023-02-27T08:29:21.950Z,46.34
2023-02-27T08:31:23.848Z,46.92
2023-02-27T08:33:26.150Z,46.75
2023-02-27T08:35:31.919Z,46.26
2023-02-27T08:37:33.944Z,46.11
2023-02-27T08:39:35.738Z,46.22
2023-02-27T08:41:37.701Z,46.44
2023-02-27T08:43:39.340Z,45.95
2023-02-27T08:45:41.040Z,46.24
2023-02-27T08:47:45.324Z,46.59
2023-02-27T08:49:49.345Z,46.62
2023-02-27T08:51:56.471Z,46.15
2023-02-27T08:54:04.264Z,46.40
2023-02-27T08:56:06.344Z,46.95
2023-02-27T08:58:08.621Z,46.48
2023-02-27T09:00:11.871Z,46.30
2023-02-27T09:02:13.926Z,46.59
2023-02-27T09:04:16.326Z,46.22
2023-02-27T09:06:20.430Z,46.46
2023-02-27T09:08:23.113Z,46.67
2023-02-27T09:10:25.173Z,46.54
2023-02-27T09:12:26.670Z,46.56
2023-02-27T09:14:28.424Z,46.17
2023-02-27T09:16:30.691Z,46.61
2023-02-27T09:18:32.658Z,46.67
2023-02-27T09:20:36.099Z,46.49
2023-02-27T09:22:38.407Z,45.91
2023-02-27T09:24:40.323Z,46.10
2023-02-27T09:26:46.091Z,46.44
2023-02-27T09:28:51.849Z,46.40
2023-02-27T09:30:53.687Z,47.01
2023-02-27T09:32:55.237Z,46.99
2023-02-27T09:34:56.741Z,47.45
2023-02-27T09:36:59.991Z,48.15
2023-02-27T09:39:01.617Z,48.13
2023-02-27T09:41:06.100Z,49.03
2023-02-27T09:43:15.495Z,50.07
2023-02-27T09:45:26.442Z,50.94
2023-02-27T09:47:35.482Z,50.13
2023-02-27T09:49:51.665Z,51.17
2023-02-27T09:51:53.693Z,50.16
2023-02-27T09:54:00.002Z,50.14
2023-02-27T09:56:10.988Z,50.30
2023-02-27T09:58:31.315Z,49.56
2023-02-27T10:00:38.609Z,49.46
2023-02-27T10:02:58.616Z,49.23
2023-02-27T10:05:31.717Z,49.11
2023-02-27T10:07:48.606Z,48.56
2023-02-27T10:10:11.295Z,48.24
2023-02-27T10:12:35.999Z,48.06
2023-02-27T10:14:49.866Z,47.83
2023-02-27T10:16:53.540Z,47.56
2023-02-27T10:19:06.159Z,47.34
2023-02-27T10:21:18.445Z,47.12
2023-02-27T10:23:31.972Z,47.14
2023-02-27T10:25:39.996Z,46.89
2023-02-27T10:27:46.553Z,46.63
2023-02-27T10:29:48.409Z,46.66
2023-02-27T10:31:59.540Z,46.25
2023-02-27T10:34:01.764Z,45.72
2023-02-27T10:36:12.449Z,45.27
2023-02-27T10:38:31.975Z,44.25
2023-02-27T10:40:40.327Z,44.26
2023-02-27T10:42:42.222Z,44.14
2023-02-27T10:44:44.109Z,43.86
2023-02-27T10:46:46.204Z,43.23
2023-02-27T10:48:48.033Z,42.51
2023-02-27T10:50:53.840Z,41.68
2023-02-27T10:53:01.102Z,40.83
2023-02-27T10:55:19.487Z,40.15
2023-02-27T10:57:30.437Z,40.34
2023-02-27T10:59:36.315Z,40.53
2023-02-27T11:01:51.712Z,40.74
2023-02-27T11:03:56.751Z,41.19
2023-02-27T11:06:01.997Z,41.81
2023-02-27T11:08:31.572Z,41.60
2023-02-27T11:10:33.302Z,41.86
2023-02-27T11:12:35.284Z,41.94
2023-02-27T11:14:48.825Z,41.34
2023-02-27T11:16:52.754Z,41.43
2023-02-27T11:18:54.575Z,40.67
2023-02-27T11:21:22.123Z,39.46
2023-02-27T11:23:26.840Z,39.24
2023-02-27T11:25:28.633Z,39.54
2023-02-27T11:27:30.752Z,39.28
2023-02-27T11:29:34.797Z,39.10
2023-02-27T11:31:38.033Z,38.96
2023-02-27T11:33:47.902Z,38.92
2023-02-27T11:35:56.882Z,38.74
2023-02-27T11:38:04.037Z,38.88
2023-02-27T11:40:30.507Z,38.43
2023-02-27T11:42:41.783Z,38.67
2023-02-27T11:46:11.901Z,38.26
2023-02-27T11:47:49.553Z,38.65
2023-02-27T11:49:56.957Z,38.90
2023-02-27T11:52:12.020Z,38.61
2023-02-27T11:54:42.562Z,38.20
2023-02-27T11:56:58.292Z,38.29
2023-02-27T11:59:40.472Z,38.29
2023-02-27T12:01:51.053Z,38.88
2023-02-27T12:04:04.167Z,38.75
2023-02-27T12:06:17.297Z,38.88
2023-02-27T12:08:36.700Z,39.18
2023-02-27T12:10:49.482Z,39.12
2023-02-27T12:12:57.380Z,38.91
2023-02-27T12:15:15.320Z,39.34
2023-02-27T12:17:26.955Z,39.31
2023-02-27T12:19:38.693Z,39.82
2023-02-27T12:21:49.592Z,40.08
2023-02-27T12:24:21.317Z,39.57
2023-02-27T12:26:30.101Z,39.89
2023-02-27T12:29:09.369Z,39.49
2023-02-27T12:31:35.528Z,39.28
2023-02-27T12:34:05.596Z,39.66
2023-02-27T12:36:13.076Z,40.10
2023-02-27T12:38:15.316Z,40.42
2023-02-27T12:40:19.492Z,40.24
2023-02-27T12:42:58.950Z,40.18
2023-02-27T12:45:06.833Z,39.65
2023-02-27T12:47:32.950Z,39.57
2023-02-27T12:49:48.263Z,38.62
2023-02-27T12:52:17.257Z,39.14
2023-02-27T12:54:57.907Z,40.24
2023-02-27T12:57:08.300Z,40.57
2023-02-27T12:59:48.151Z,40.04
2023-02-27T13:02:43.319Z,39.83
2023-02-27T13:05:30.469Z,39.72
2023-02-27T13:07:45.386Z,39.14
2023-02-27T13:10:02.327Z,39.11
2023-02-27T13:12:10.377Z,38.60
2023-02-27T13:14:26.802Z,38.68
2023-02-27T13:16:37.359Z,38.43
2023-02-27T13:19:05.825Z,38.69
2023-02-27T13:21:26.561Z,38.11
2023-02-27T13:23:47.983Z,38.33
2023-02-27T13:25:52.530Z,38.43
2023-02-27T13:28:00.364Z,38.50
2023-02-27T13:30:06.477Z,38.33
2023-02-27T13:32:30.000Z,38.25
2023-02-27T13:34:47.087Z,38.42
2023-02-27T13:36:58.164Z,38.51
2023-02-27T13:38:59.739Z,38.57
2023-02-27T13:41:24.097Z,38.18
2023-02-27T13:43:51.399Z,38.45
2023-02-27T13:45:58.077Z,38.86
2023-02-27T13:47:59.592Z,38.51
2023-02-27T13:50:04.057Z,38.07
2023-02-27T13:52:05.653Z,38.49
2023-02-27T13:54:16.669Z,38.30
2023-02-27T13:56:22.325Z,38.30
2023-02-27T13:58:27.073Z,38.43
2023-02-27T14:00:34.291Z,38.07
2023-02-27T14:02:57.816Z,37.99
2023-02-27T14:05:03.774Z,38.08
2023-02-27T14:07:15.472Z,38.27
2023-02-27T14:09:22.120Z,37.99
2023-02-27T14:11:28.365Z,38.34
2023-02-27T14:13:45.624Z,37.85
2023-02-27T14:15:47.409Z,37.95
2023-02-27T14:18:12.595Z,37.22
2023-02-27T14:20:19.187Z,38.28
2023-02-27T14:22:47.192Z,37.72
2023-02-27T14:25:02.787Z,37.63
2023-02-27T14:27:17.408Z,38.34
2023-02-27T14:29:23.408Z,38.24
2023-02-27T14:31:31.006Z,38.45
2023-02-27T14:33:48.429Z,38.15
2023-02-27T14:36:06.865Z,38.96
2023-02-27T14:38:11.793Z,38.84
2023-02-27T14:40:30.074Z,38.68
2023-02-27T14:42:54.960Z,38.46
2023-02-27T14:44:56.535Z,38.92
2023-02-27T14:47:02.704Z,39.14
2023-02-27T14:49:17.035Z,38.98
2023-02-27T14:51:18.994Z,39.33
2023-02-27T14:53:27.431Z,39.38
2023-02-27T14:55:34.394Z,39.69
2023-02-27T14:57:36.062Z,39.81
2023-02-27T14:59:46.656Z,39.94
2023-02-27T15:01:48.922Z,40.16
2023-02-27T15:03:57.505Z,40.32
2023-02-27T15:06:02.512Z,40.14
2023-02-27T15:08:04.536Z,40.33
2023-02-27T15:10:09.730Z,40.27
2023-02-27T15:12:18.407Z,40.54
2023-02-27T15:14:31.070Z,40.34
2023-02-27T15:16:39.238Z,41.22
2023-02-27T15:18:41.211Z,43.15
2023-02-27T15:20:42.939Z,41.98
2023-02-27T15:22:44.764Z,41.73
2023-02-27T15:24:50.476Z,41.20
2023-02-27T15:26:56.198Z,41.16
2023-02-27T15:29:08.251Z,40.68
2023-02-27T15:31:17.741Z,40.82
2023-02-27T15:33:24.692Z,40.79
2023-02-27T15:35:38.206Z,40.79
2023-02-27T15:37:56.746Z,40.91
2023-02-27T15:40:00.538Z,41.13
2023-02-27T15:42:05.074Z,40.92
2023-02-27T15:44:06.861Z,40.92
2023-02-27T15:46:08.776Z,40.73
2023-02-27T15:48:15.583Z,40.72
2023-02-27T15:50:17.160Z,40.85
2023-02-27T15:52:22.462Z,40.74
2023-02-27T15:54:24.185Z,40.30
2023-02-27T15:56:31.620Z,40.40
2023-02-27T15:58:43.711Z,40.74
2023-02-27T16:00:45.832Z,40.82
2023-02-27T16:02:54.373Z,40.79
2023-02-27T16:04:58.139Z,40.60
2023-02-27T16:07:15.704Z,40.93
2023-02-27T16:09:23.292Z,40.70
2023-02-27T16:11:29.698Z,40.75
2023-02-27T16:13:45.132Z,40.43
2023-02-27T16:16:26.541Z,41.40
2023-02-27T16:18:36.430Z,41.37
2023-02-27T16:20:55.014Z,40.80
2023-02-27T16:23:05.903Z,40.57
2023-02-27T16:25:18.472Z,40.57
2023-02-27T16:27:24.911Z,40.50
2023-02-27T16:29:35.872Z,40.44
2023-02-27T16:31:39.652Z,40.71
2023-02-27T16:33:44.437Z,40.30
2023-02-27T16:35:48.888Z,40.48
2023-02-27T16:37:51.568Z,39.94
2023-02-27T16:39:56.663Z,40.55
2023-02-27T16:41:59.983Z,40.41
2023-02-27T16:44:01.624Z,40.57
2023-02-27T16:46:07.643Z,40.72
2023-02-27T16:48:11.385Z,40.52
2023-02-27T16:50:30.386Z,40.44
2023-02-27T16:52:31.962Z,40.39
2023-02-27T16:54:38.219Z,40.39
2023-02-27T16:56:40.663Z,40.32
2023-02-27T16:58:42.788Z,40.65
2023-02-27T17:00:44.706Z,40.63
2023-02-27T17:02:49.281Z,40.68
2023-02-27T17:04:52.181Z,40.63
2023-02-27T17:07:00.231Z,40.75
2023-02-27T17:09:01.930Z,40.82
2023-02-27T17:11:06.171Z,41.16
2023-02-27T17:13:07.960Z,40.59
2023-02-27T17:15:10.444Z,40.91
2023-02-27T17:17:19.753Z,40.69
2023-02-27T17:19:22.224Z,40.81
2023-02-27T17:21:23.921Z,41.11
2023-02-27T17:23:25.643Z,40.90
2023-02-27T17:25:27.885Z,40.99
2023-02-27T17:27:29.831Z,40.90
2023-02-27T17:29:34.794Z,41.23
2023-02-27T17:31:37.174Z,41.22
2023-02-27T17:33:39.035Z,41.12
2023-02-27T17:35:40.789Z,40.66
2023-02-27T17:37:42.512Z,41.29
2023-02-27T17:39:44.112Z,41.36
2023-02-27T17:41:46.484Z,41.19
2023-02-27T17:43:52.113Z,41.33
2023-02-27T17:45:53.773Z,41.08
2023-02-27T17:47:55.591Z,41.60
2023-02-27T17:49:57.417Z,41.42
2023-02-27T17:52:03.637Z,41.47
2023-02-27T17:54:06.705Z,41.08
2023-02-27T17:56:09.392Z,41.33
2023-02-27T17:58:11.308Z,41.34
2023-02-27T18:00:15.059Z,41.66
2023-02-27T18:02:16.792Z,41.11
2023-02-27T18:04:18.671Z,41.39
2023-02-27T18:06:23.554Z,41.44
2023-02-27T18:08:25.738Z,41.25
2023-02-27T18:10:27.968Z,41.48
2023-02-27T18:12:29.816Z,41.29
2023-02-27T18:14:33.629Z,41.44
2023-02-27T18:16:35.994Z,41.80
2023-02-27T18:18:39.183Z,41.66
2023-02-27T18:20:41.580Z,41.67
2023-02-27T18:22:43.235Z,41.87
2023-02-27T18:24:44.887Z,41.86
2023-02-27T18:26:46.687Z,41.87
2023-02-27T18:28:52.898Z,41.74
2023-02-27T18:30:54.792Z,42.11
2023-02-27T18:32:57.938Z,41.77
2023-02-27T18:34:59.813Z,41.41
2023-02-27T18:37:01.622Z,42.17
2023-02-27T18:39:05.005Z,42.26
2023-02-27T18:41:09.241Z,41.81
2023-02-27T18:43:17.567Z,41.86
2023-02-27T18:45:19.824Z,41.68
2023-02-27T18:47:21.476Z,41.83
2023-02-27T18:49:25.309Z,42.09
2023-02-27T18:51:27.401Z,42.09
2023-02-27T18:53:29.202Z,42.54
2023-02-27T18:55:30.944Z,41.96
2023-02-27T18:57:32.582Z,41.98
2023-02-27T18:59:34.360Z,42.12
2023-02-27T19:01:39.222Z,42.06
2023-02-27T19:03:40.988Z,42.47
2023-02-27T19:05:43.144Z,42.12
2023-02-27T19:07:45.385Z,41.95
2023-02-27T19:09:47.298Z,42.31
2023-02-27T19:11:48.935Z,42.09
2023-02-27T19:13:50.605Z,42.60
2023-02-27T19:15:53.437Z,42.94
2023-02-27T19:17:55.170Z,42.37
2023-02-27T19:19:56.842Z,42.85
2023-02-27T19:21:59.047Z,42.70
2023-02-27T19:24:01.506Z,42.37
2023-02-27T19:26:03.178Z,42.75
2023-02-27T19:28:06.210Z,42.48
2023-02-27T19:30:08.665Z,42.99
2023-02-27T19:32:13.114Z,42.80
2023-02-27T19:34:17.376Z,42.32
2023-02-27T19:36:20.906Z,42.61
2023-02-27T19:38:22.770Z,43.02
2023-02-27T19:40:28.138Z,43.30
2023-02-27T19:42:29.651Z,42.85
2023-02-27T19:44:31.476Z,42.57
2023-02-27T19:46:34.634Z,42.80
2023-02-27T19:48:37.047Z,43.04
2023-02-27T19:50:40.198Z,42.78
2023-02-27T19:52:42.264Z,42.96
2023-02-27T19:54:44.017Z,42.81
2023-02-27T19:56:45.666Z,42.54
2023-02-27T19:58:51.353Z,42.83
2023-02-27T20:00:53.222Z,42.98
2023-02-27T20:02:55.130Z,42.78
2023-02-27T20:04:57.335Z,43.64
2023-02-27T20:06:59.072Z,43.17
2023-02-27T20:09:00.849Z,43.27
2023-02-27T20:11:04.532Z,43.57
2023-02-27T20:13:06.294Z,43.25
2023-02-27T20:15:11.564Z,43.52
2023-02-27T20:17:14.740Z,43.00
2023-02-27T20:19:18.179Z,43.25
2023-02-27T20:21:24.186Z,42.79
2023-02-27T20:23:26.412Z,43.81
2023-02-27T20:25:29.570Z,43.30
2023-02-27T20:27:31.336Z,43.50
2023-02-27T20:29:33.098Z,43.51
2023-02-27T20:31:37.171Z,43.61
2023-02-27T20:33:41.790Z,43.80
2023-02-27T20:35:43.615Z,43.37
2023-02-27T20:37:48.310Z,42.89
2023-02-27T20:39:50.726Z,43.29
2023-02-27T20:41:52.306Z,43.26
2023-02-27T20:43:54.423Z,43.28
2023-02-27T20:45:56.185Z,43.46
2023-02-27T20:47:57.845Z,43.30
2023-02-27T20:49:59.534Z,43.71
2023-02-27T20:52:01.300Z,43.76
2023-02-27T20:54:06.233Z,43.05
2023-02-27T20:56:11.302Z,43.55
2023-02-27T20:58:12.904Z,43.07
2023-02-27T21:00:15.482Z,43.11
2023-02-27T21:02:17.432Z,43.49
2023-02-27T21:04:26.466Z,42.73
2023-02-27T21:06:28.478Z,43.88
2023-02-27T21:08:34.602Z,43.13
2023-02-27T21:10:38.825Z,43.49
2023-02-27T21:12:40.458Z,43.84
2023-02-27T21:14:44.554Z,43.94
2023-02-27T21:16:48.533Z,43.54
2023-02-27T21:18:51.489Z,43.17
2023-02-27T21:20:53.101Z,43.26
2023-02-27T21:23:00.392Z,43.74
2023-02-27T21:25:02.166Z,43.60
2023-02-27T21:27:05.141Z,43.70
2023-02-27T21:29:10.235Z,43.36
2023-02-27T21:31:12.027Z,43.44
2023-02-27T21:33:16.266Z,43.52
2023-02-27T21:35:19.516Z,43.61
2023-02-27T21:37:21.146Z,43.11
2023-02-27T21:39:25.889Z,43.73
2023-02-27T21:41:29.054Z,43.51
2023-02-27T21:43:31.741Z,43.43
2023-02-27T21:45:36.640Z,43.04
2023-02-27T21:47:38.253Z,43.20
2023-02-27T21:49:40.064Z,43.54
2023-02-27T21:51:42.056Z,43.45
2023-02-27T21:53:43.986Z,43.90
2023-02-27T21:55:45.823Z,43.42
2023-02-27T21:57:52.726Z,43.69
2023-02-27T21:59:54.382Z,43.68
2023-02-27T22:01:57.324Z,43.53
2023-02-27T22:03:59.458Z,43.66
2023-02-27T22:06:02.147Z,43.22
2023-02-27T22:08:06.610Z,43.19
2023-02-27T22:10:09.157Z,43.59
2023-02-27T22:12:10.728Z,43.19
2023-02-27T22:14:21.649Z,43.92
2023-02-27T22:16:24.360Z,43.46
2023-02-27T22:18:27.304Z,43.86
2023-02-27T22:20:29.013Z,43.53
2023-02-27T22:22:30.631Z,43.86
2023-02-27T22:24:32.343Z,43.77
2023-02-27T22:26:34.601Z,43.50
2023-02-27T22:28:41.300Z,43.26
2023-02-27T22:30:42.973Z,43.68
2023-02-27T22:32:44.555Z,43.61
2023-02-27T22:34:46.372Z,43.59
2023-02-27T22:36:52.248Z,44.05
2023-02-27T22:38:53.961Z,43.27
2023-02-27T22:40:58.447Z,44.01
2023-02-27T22:43:03.620Z,43.78
2023-02-27T22:45:05.810Z,43.76
2023-02-27T22:47:07.532Z,43.62
2023-02-27T22:49:21.668Z,44.11
2023-02-27T22:51:25.388Z,44.19
2023-02-27T22:53:26.903Z,43.48
2023-02-27T22:55:37.432Z,43.66
2023-02-27T22:57:39.183Z,44.16
2023-02-27T22:59:40.925Z,44.01
2023-02-27T23:01:42.620Z,44.28
2023-02-27T23:03:45.808Z,44.25
2023-02-27T23:05:50.596Z,44.27
2023-02-27T23:07:52.227Z,44.32
2023-02-27T23:09:53.818Z,44.25
2023-02-27T23:11:55.703Z,44.26
2023-02-27T23:13:59.409Z,43.71
2023-02-27T23:16:02.283Z,43.93
2023-02-27T23:18:05.320Z,44.08
2023-02-27T23:20:07.361Z,43.83
2023-02-27T23:22:10.983Z,43.98
2023-02-27T23:24:15.339Z,44.42
2023-02-27T23:26:17.019Z,44.58
2023-02-27T23:28:18.533Z,44.03
2023-02-27T23:30:21.570Z,44.01
2023-02-27T23:32:23.503Z,43.83
2023-02-27T23:34:25.172Z,44.32
2023-02-27T23:36:26.827Z,44.33
2023-02-27T23:38:29.260Z,44.06
2023-02-27T23:40:30.854Z,44.25
2023-02-27T23:42:35.950Z,44.28
2023-02-27T23:44:37.471Z,44.16
2023-02-27T23:46:39.665Z,44.02
2023-02-27T23:48:42.228Z,44.31
2023-02-27T23:50:44.870Z,44.28
2023-02-27T23:52:49.953Z,44.53
2023-02-27T23:54:51.507Z,44.20
2023-02-27T23:56:53.100Z,44.22
2023-02-27T23:59:01.597Z,44.18
